LEAB/ABC METAR and TAF weather

Enter ICAO airport designator
Station Type Date Time Source
LEAB METAR 2022/08/13 11:30 UTC NOAA

LEAB 131130Z 03008KT 360V070 9999 FEW030 26/16 Q1019 NOSIG


Station Type Date Time Source
LEAB Decoded METAR 2022/08/13 11:30 UTC NOAA

Albacete / Los Llanos, Spain (LEAB) 38-57N 001-51W 704M
Aug 13, 2022 - 07:30 AM EDT / 2022.08.13 1130 UTC
Wind: from the NNE (030 degrees) at 9 MPH (8 KT) (direction variable):0
Visibility: greater than 7 mile(s):0
Sky conditions: mostly clear
Temperature: 78 F (26 C)
Dew Point: 60 F (16 C)
Relative Humidity: 54%
Pressure (altimeter): 30.09 in. Hg (1019 hPa)
ob: LEAB 131130Z 03008KT 360V070 9999 FEW030 26/16 Q1019 NOSIG
cycle: 11

Station Type Date Time Source
LEAB TAF 2022/08/13 12:27 UTC NOAA

TAF LEAB 131100Z 1312/1412 VRB05KT CAVOK TX34/1312Z TN18/1405Z
TEMPO 1312/1314 28010KT PROB40
TEMPO 1314/1319 35010KT PROB30
TEMPO 1312/1317 VRB15G35KT 4000 TSRA SHRA SCT040CB

Example: see airport list